SondeTracker

Meteorological Radiosondes Database

Operations

Sounding was ended - last measurement: 2022-12-07 13:51:16z

MAP
About Radiosonde

Number: U0341077

Launch Site: Curitiba (BR)

Type: RS41

AUX: NO

Frequency: 403.001 MHz

Max Speed: 120 km/h at 8267 m

Average Speed: 99.32 km/h

Max Altitude: 13073 m

Average Ascent Speed: 0.00 m/s

Average Descent Speed: 4.42 m/s

Status: UNKNOWN

Status Changes
Launch Site Type AUX Frequency Status Finder Landing Point Description Changes made by
APRS Statistics

Received Frames: 62

First Frame [UTC]: 2022-12-07 13:27:30z

Last Frame [UTC]: 2022-12-07 13:51:16z

Receivers: PU5PEP-11, PY5EW

Flight Time: 00:23:46 h

Distance From First Measurement: 38.51 km

Nearest City: Almirante Tamandaré (BR) [65.55 km]

Nearest Hunter: PY2JCM [46.19 km]

Ground Altitude: 503 m

Distance from QTH: 0.00 km

APRS Data
Receiver Number Date/Time [UTC] φ λ Course [°] Speed [km/h] Altitude [m] Description
PU5PEP-11U03410772022-12-07 13:51:16-24.7337-49.177823576765Clb=-4.8m/s 403.00MHz Type=RS41-SGP Aux[] BK=Timed(074047h) RS41Tracker 1.17
PU5PEP-11U03410772022-12-07 13:50:56-24.7364-49.17921546855Clb=-5.2m/s 403.00MHz Type=RS41-SGP Aux[] BK=Timed(074047h) RS41Tracker 1.17
PU5PEP-11U03410772022-12-07 13:49:20-24.7542-49.185316917315Clb=-4.5m/s 403.00MHz Type=RS41-SGP Aux[] BK=Timed(074138h) RS41Tracker 1.17
PU5PEP-11U03410772022-12-07 13:49:00-24.7587-49.18718947415Clb=-5.0m/s 403.00MHz Type=RS41-SGP Aux[] BK=Timed(074138h) RS41Tracker 1.17
PU5PEP-11U03410772022-12-07 13:48:18-24.7683-49.1905171067611Clb=-4.8m/s 403.00MHz Type=RS41-SGP Aux[] BK=Timed(074229h) RS41Tracker 1.17
PU5PEP-11U03410772022-12-07 13:47:58-24.7735-49.1921141117707Clb=-4.8m/s 403.00MHz Type=RS41-SGP Aux[] BK=Timed(074229h) RS41Tracker 1.17
PU5PEP-11U03410772022-12-07 13:47:38-24.7789-49.1936151117801Clb=-5.1m/s 403.00MHz Type=RS41-SGP Aux[] BK=Timed(074502h) RS41Tracker 1.17
PU5PEP-11U03410772022-12-07 13:47:18-24.7845-49.1953151197897Clb=-5.2m/s 403.00MHz Type=RS41-SGP Aux[] BK=Timed(074502h) RS41Tracker 1.17
PU5PEP-11U03410772022-12-07 13:46:58-24.7902-49.1969141198000Clb=-5.6m/s 403.00MHz Type=RS41-SGP Aux[] BK=Timed(074502h) RS41Tracker 1.17
PU5PEP-11U03410772022-12-07 13:46:38-24.796-49.1988171208105Clb=-5.5m/s 403.00MHz Type=RS41-SGP Aux[] BK=Timed(074502h) RS41Tracker 1.17
PU5PEP-11U03410772022-12-07 13:46:18-24.8018-49.2006161208194Clb=-3.3m/s 403.00MHz Type=RS41-SGP Aux[] BK=Timed(074502h) RS41Tracker 1.17
PU5PEP-11U03410772022-12-07 13:45:58-24.8077-49.2024151208267Clb=-3.2m/s 403.00MHz Type=RS41-SGP Aux[] BK=Timed(074502h) RS41Tracker 1.17
PU5PEP-11U03410772022-12-07 13:45:38-24.8133-49.204141178338Clb=-3.3m/s 403.00MHz Type=RS41-SGP Aux[] BK=Timed(074502h) RS41Tracker 1.17
PU5PEP-11U03410772022-12-07 13:45:18-24.8189-49.2054141118409Clb=-3.7m/s 403.00MHz Type=RS41-SGP Aux[] BK=Timed(074553h) RS41Tracker 1.17
PU5PEP-11U03410772022-12-07 13:44:58-24.8244-49.2069131138475Clb=-3.3m/s 403.00MHz Type=RS41-SGP Aux[] BK=Timed(074553h) RS41Tracker 1.17
PU5PEP-11U03410772022-12-07 13:44:38-24.8298-49.2084151098546Clb=-3.4m/s 403.00MHz Type=RS41-SGP Aux[] BK=Timed(074553h) RS41Tracker 1.17
PU5PEP-11U03410772022-12-07 13:44:18-24.8349-49.2102191078622Clb=-4.4m/s 403.00MHz Type=RS41-SGP Aux[] BK=Timed(074644h) RS41Tracker 1.17
PU5PEP-11U03410772022-12-07 13:43:58-24.84-49.2124221138698Clb=-3.6m/s 403.00MHz Type=RS41-SGP Aux[] BK=Timed(074644h) RS41Tracker 1.17
PU5PEP-11U03410772022-12-07 13:43:38-24.8452-49.2147251158774Clb=-4.1m/s 403.00MHz Type=RS41-SGP Aux[] BK=Timed(074735h) RS41Tracker 1.17
PU5PEP-11U03410772022-12-07 13:43:18-24.8504-49.2172251158852Clb=-3.8m/s 403.00MHz Type=RS41-SGP Aux[] BK=Timed(074735h) RS41Tracker 1.17
PU5PEP-11U03410772022-12-07 13:42:58-24.8555-49.2198231118925Clb=-3.6m/s 403.00MHz Type=RS41-SGP Aux[] BK=Timed(074735h) RS41Tracker 1.17
PU5PEP-11U03410772022-12-07 13:42:38-24.8606-49.2223241118997Clb=-3.4m/s 403.00MHz Type=RS41-SGP Aux[] BK=Timed(074826h) RS41Tracker 1.17
PU5PEP-11U03410772022-12-07 13:42:18-24.8657-49.2249251119071Clb=-3.7m/s 403.00MHz Type=RS41-SGP Aux[] BK=Timed(074826h) RS41Tracker 1.17
PU5PEP-11U03410772022-12-07 13:41:58-24.8707-49.2276251099145Clb=-3.8m/s 403.00MHz Type=RS41-SGP Aux[] BK=Timed(074917h) RS41Tracker 1.17
PU5PEP-11U03410772022-12-07 13:41:38-24.8756-49.2301251079223Clb=-3.9m/s 403.00MHz Type=RS41-SGP Aux[] BK=Timed(074917h) RS41Tracker 1.17
PU5PEP-11U03410772022-12-07 13:41:18-24.8805-49.2326241099302Clb=-4.0m/s 403.00MHz Type=RS41-SGP Aux[] BK=Timed(074917h) RS41Tracker 1.17
PU5PEP-11U03410772022-12-07 13:40:58-24.8855-49.2349221099382Clb=-4.0m/s 403.00MHz Type=RS41-SGP Aux[] BK=Timed(075008h) RS41Tracker 1.17
PU5PEP-11U03410772022-12-07 13:40:38-24.8907-49.2372221139465Clb=-3.9m/s 403.00MHz Type=RS41-SGP Aux[] BK=Timed(075008h) RS41Tracker 1.17
PU5PEP-11U03410772022-12-07 13:40:18-24.8957-49.2393201069550Clb=-4.4m/s 403.00MHz Type=RS41-SGP Aux[] BK=Timed(075059h) RS41Tracker 1.17
PU5PEP-11U03410772022-12-07 13:39:58-24.9008-49.2413191079640Clb=-4.7m/s 403.00MHz Type=RS41-SGP Aux[] BK=Timed(075059h) RS41Tracker 1.17
PU5PEP-11U03410772022-12-07 13:39:38-24.9058-49.2432191079728Clb=-4.5m/s 403.00MHz Type=RS41-SGP Aux[] BK=Timed(075059h) RS41Tracker 1.17
PU5PEP-11U03410772022-12-07 13:39:18-24.9109-49.2452191079816Clb=-4.7m/s 403.00MHz Type=RS41-SGP Aux[] BK=Timed(075150h) RS41Tracker 1.17
PU5PEP-11U03410772022-12-07 13:38:58-24.9161-49.2471191099906Clb=-4.4m/s 403.00MHz Type=RS41-SGP Aux[] BK=Timed(075150h) RS41Tracker 1.17
PU5PEP-11U03410772022-12-07 13:38:38-24.9212-49.2489171079997Clb=-4.4m/s 403.00MHz Type=RS41-SGP Aux[] BK=Timed(075150h) RS41Tracker 1.17
PU5PEP-11U03410772022-12-07 13:38:18-24.9262-49.25061810210083Clb=-4.3m/s 403.00MHz Type=RS41-SGP Aux[] BK=Timed(075241h) RS41Tracker 1.17
PU5PEP-11U03410772022-12-07 13:37:38-24.9355-49.2539169310257Clb=-4.3m/s 403.00MHz Type=RS41-SGP Aux[] BK=Timed(075332h) RS41Tracker 1.17
PU5PEP-11U03410772022-12-07 13:37:18-24.9401-49.2553159610344Clb=-4.4m/s 403.00MHz Type=RS41-SGP Aux[] BK=Timed(075332h) RS41Tracker 1.17
PU5PEP-11U03410772022-12-07 13:36:58-24.9447-49.2567159610433Clb=-4.7m/s 403.00MHz Type=RS41-SGP Aux[] BK=Timed(075332h) RS41Tracker 1.17
PU5PEP-11U03410772022-12-07 13:36:38-24.9495-49.2581169810522Clb=-5.4m/s 403.00MHz Type=RS41-SGP Aux[] BK=Timed(075423h) RS41Tracker 1.17
PU5PEP-11U03410772022-12-07 13:36:18-24.9542-49.25951710410618Clb=-4.6m/s 403.00MHz Type=RS41-SGP Aux[] BK=Timed(075423h) RS41Tracker 1.17
PU5PEP-11U03410772022-12-07 13:35:58-24.9592-49.26111510610710Clb=-4.5m/s 403.00MHz Type=RS41-SGP Aux[] BK=Timed(075514h) RS41Tracker 1.17
PU5PEP-11U03410772022-12-07 13:35:38-24.9642-49.26261610210808Clb=-4.9m/s 403.00MHz Type=RS41-SGP Aux[] BK=Timed(075514h) RS41Tracker 1.17
PU5PEP-11U03410772022-12-07 13:35:18-24.9691-49.26421810410899Clb=-4.6m/s 403.00MHz Type=RS41-SGP Aux[] BK=Timed(075514h) RS41Tracker 1.17
PU5PEP-11U03410772022-12-07 13:34:58-24.974-49.26581410010987Clb=-4.1m/s 403.00MHz Type=RS41-SGP Aux[] BK=Timed(075605h) RS41Tracker 1.17
PU5PEP-11U03410772022-12-07 13:34:38-24.9788-49.26731610011073Clb=-4.8m/s 403.00MHz Type=RS41-SGP Aux[] BK=Timed(075605h) RS41Tracker 1.17
PU5PEP-11U03410772022-12-07 13:34:18-24.9835-49.2688169811162Clb=-4.3m/s 403.00MHz Type=RS41-SGP Aux[] BK=Timed(075656h) RS41Tracker 1.17
PU5PEP-11U03410772022-12-07 13:33:58-24.9881-49.2703169411250Clb=-4.8m/s 403.00MHz Type=RS41-SGP Aux[] BK=Timed(075656h) RS41Tracker 1.17
PU5PEP-11U03410772022-12-07 13:33:38-24.9927-49.2717159411338Clb=-4.5m/s 403.00MHz Type=RS41-SGP Aux[] BK=Timed(075656h) RS41Tracker 1.17
PU5PEP-11U03410772022-12-07 13:33:18-24.9971-49.2732169411422Clb=-4.4m/s 403.00MHz Type=RS41-SGP Aux[] BK=Timed(075747h) RS41Tracker 1.17
PU5PEP-11U03410772022-12-07 13:32:58-25.0016-49.2747169411507Clb=-4.7m/s 403.00MHz Type=RS41-SGP Aux[] BK=Timed(075747h) RS41Tracker 1.17
PU5PEP-11U03410772022-12-07 13:32:38-25.0062-49.2762169611592Clb=-4.5m/s 403.00MHz Type=RS41-SGP Aux[] BK=Timed(075838h) RS41Tracker 1.17
PU5PEP-11U03410772022-12-07 13:32:18-25.0107-49.2775179111680Clb=-4.7m/s 403.00MHz Type=RS41-SGP Aux[] BK=Timed(075838h) RS41Tracker 1.17
PU5PEP-11U03410772022-12-07 13:31:58-25.0149-49.2789178911769Clb=-4.8m/s 403.00MHz Type=RS41-SGP Aux[] BK=Timed(075838h) RS41Tracker 1.17
PU5PEP-11U03410772022-12-07 13:31:38-25.0191-49.2803188511859Clb=-4.5m/s 403.00MHz Type=RS41-SGP Aux[] BK=Timed(075929h) RS41Tracker 1.17
PU5PEP-11U03410772022-12-07 13:31:18-25.023-49.2817218011949Clb=-4.7m/s 403.00MHz Type=RS41-SGP Aux[] BK=Timed(075929h) RS41Tracker 1.17
PU5PEP-11U03410772022-12-07 13:30:58-25.0265-49.2834257412043Clb=-4.6m/s 403.00MHz Type=RS41-SGP Aux[] BK=Timed(075929h) RS41Tracker 1.17
PU5PEP-11U03410772022-12-07 13:30:38-25.0299-49.2853287612137Clb=-4.5m/s 403.00MHz Type=RS41-SGP Aux[] BK=Timed(080020h) RS41Tracker 1.17
PU5PEP-11U03410772022-12-07 13:30:18-25.0332-49.2872287212233Clb=-4.9m/s 403.00MHz Type=RS41-SGP Aux[] BK=Timed(080020h) RS41Tracker 1.17
PU5PEP-11U03410772022-12-07 13:29:56-25.0366-49.2894307412340Clb=-5.0m/s 403.00MHz Type=RS41-SGP Aux[] BK=Timed(080111h) RS41Tracker 1.17
PU5PEP-11U03410772022-12-07 13:29:36-25.0397-49.2914347212438Clb=-5.2m/s 403.00MHz Type=RS41-SGP Aux[] BK=Timed(080111h) RS41Tracker 1.17
PU5PEP-11U03410772022-12-07 13:29:16-25.0427-49.2936347012538Clb=-5.3m/s 403.00MHz Type=RS41-SGP Aux[] BK=Timed(080111h) RS41Tracker 1.17
PY5EWU03410772022-12-07 13:27:30-25.0607-49.3035195913073Clb=-5.4m/s t=-273.0C h=-1.0% p=-1.0hPa 403.001 MHz Type=RS41 Radiosonde auto_rx v1.5.7